Time;durP1;ratioP1;P1;durP2;ratioP2;P2;SDS_P1;SDS_P2;PMS_P1;PMS_P2;Temp;Humidity;BMP_temperature;BMP_pressure;BME280_temperature;BME280_humidity;BME280_pressure;Samples;Min_cycle;Max_cycle;Signal;HPM_P1;HPM_P2
2022/11/18 00:01:29;;;;;;;9.48;3.42;;;9.00;99.90;;;;;;4981105;28;20519;-59
2022/11/18 00:03:55;;;;;;;12.05;3.30;;;9.00;99.90;;;;;;4989024;23;20064;-60
2022/11/18 00:06:26;;;;;;;7.95;3.20;;;9.00;99.90;;;;;;4985349;28;20022;-59
2022/11/18 00:08:53;;;;;;;9.15;3.35;;;9.10;99.90;;;;;;4990343;28;20073;-59
2022/11/18 00:14:21;;;;;;;10.60;3.05;;;9.10;99.90;;;;;;4982335;28;20092;-58
2022/11/18 00:16:55;;;;;;;16.17;3.25;;;9.20;99.90;;;;;;4997753;28;20033;-56
2022/11/18 00:19:24;;;;;;;7.45;2.83;;;9.10;99.90;;;;;;4978986;28;20525;-60
2022/11/18 00:21:50;;;;;;;11.93;3.65;;;9.20;99.90;;;;;;4978526;28;20497;-58
2022/11/18 00:24:16;;;;;;;12.55;3.72;;;9.30;99.90;;;;;;4978531;28;20050;-58
2022/11/18 00:26:42;;;;;;;8.88;3.08;;;9.30;99.90;;;;;;4988084;28;20034;-58
2022/11/18 00:29:11;;;;;;;6.70;2.80;;;9.30;99.90;;;;;;4993393;28;20641;-57
2022/11/18 00:31:37;;;;;;;11.95;2.35;;;9.20;99.90;;;;;;4986906;28;20369;-58
2022/11/18 00:34:02;;;;;;;14.80;3.00;;;9.30;99.90;;;;;;4983257;28;20065;-59
2022/11/18 00:36:28;;;;;;;7.68;2.53;;;9.30;99.90;;;;;;4986692;28;20062;-58
2022/11/18 00:38:54;;;;;;;7.60;2.88;;;9.30;99.90;;;;;;4980835;28;20088;-60
2022/11/18 00:41:20;;;;;;;9.90;2.75;;;9.20;99.90;;;;;;4990297;28;20023;-60
2022/11/18 00:43:45;;;;;;;12.15;2.92;;;9.20;99.90;;;;;;4989086;28;20030;-59
2022/11/18 00:46:12;;;;;;;14.48;3.88;;;9.10;99.90;;;;;;4986695;28;20046;-59
2022/11/18 00:48:38;;;;;;;10.80;2.83;;;9.10;99.90;;;;;;4984944;28;20494;-58
2022/11/18 00:51:10;;;;;;;9.45;3.78;;;9.10;99.90;;;;;;4989988;28;20100;-59
2022/11/18 00:53:36;;;;;;;10.48;3.50;;;9.20;99.90;;;;;;4983605;28;20045;-57
2022/11/18 00:56:01;;;;;;;12.73;3.47;;;9.20;99.90;;;;;;4988087;28;20061;-56
2022/11/18 00:58:28;;;;;;;14.10;2.80;;;9.20;99.90;;;;;;4979063;28;20072;-57
2022/11/18 01:00:54;;;;;;;8.65;2.83;;;9.20;99.90;;;;;;4979827;28;20026;-59
2022/11/18 01:03:19;;;;;;;10.77;3.17;;;9.20;99.90;;;;;;4985930;28;20085;-59
2022/11/18 01:05:45;;;;;;;12.90;2.92;;;9.20;99.90;;;;;;4982586;28;20041;-57
2022/11/18 01:08:12;;;;;;;14.93;3.70;;;9.20;99.90;;;;;;4990453;28;20076;-56
2022/11/18 01:10:39;;;;;;;5.80;2.40;;;9.20;99.90;;;;;;4984223;28;20038;-58
2022/11/18 01:13:18;;;;;;;6.68;3.30;;;9.20;99.90;;;;;;4979116;28;20054;-57
2022/11/18 01:15:49;;;;;;;9.95;2.95;;;9.20;99.90;;;;;;4989312;28;20386;-58
2022/11/18 01:18:17;;;;;;;11.00;3.28;;;9.30;99.90;;;;;;4983160;28;20047;-58
2022/11/18 01:20:44;;;;;;;9.88;4.70;;;9.30;99.90;;;;;;4984755;28;20027;-56
2022/11/18 01:23:11;;;;;;;16.88;5.13;;;9.30;99.90;;;;;;4986923;28;20521;-58
2022/11/18 01:25:38;;;;;;;7.38;3.60;;;9.30;99.90;;;;;;4994580;28;20034;-56
2022/11/18 01:28:04;;;;;;;13.05;3.67;;;9.20;99.90;;;;;;4994460;28;20022;-58
2022/11/18 01:30:33;;;;;;;11.73;4.22;;;9.30;99.90;;;;;;4986789;28;20369;-58
2022/11/18 01:32:59;;;;;;;12.48;3.90;;;9.30;99.90;;;;;;4986109;28;20392;-57
2022/11/18 01:35:24;;;;;;;12.68;4.03;;;9.30;99.90;;;;;;4987558;28;20077;-58
2022/11/18 01:37:50;;;;;;;8.75;3.45;;;9.30;99.90;;;;;;4976098;28;20081;-58
2022/11/18 01:40:16;;;;;;;10.98;3.78;;;9.30;99.90;;;;;;4986982;28;20057;-56
2022/11/18 01:42:41;;;;;;;11.02;3.28;;;9.30;99.90;;;;;;4987051;28;20503;-57
2022/11/18 01:45:34;;;;;;;10.02;4.15;;;9.30;99.90;;;;;;4983057;28;20027;-58
2022/11/18 01:48:06;;;;;;;10.32;3.70;;;9.20;99.90;;;;;;4986087;28;20034;-58
2022/11/18 01:50:35;;;;;;;11.25;3.95;;;9.20;99.90;;;;;;4983036;28;20027;-58
2022/11/18 01:53:10;;;;;;;7.03;3.47;;;9.20;99.90;;;;;;4984911;28;20110;-57
2022/11/18 01:55:40;;;;;;;10.93;4.57;;;9.20;99.90;;;;;;4972116;28;20034;-58
2022/11/18 01:58:13;;;;;;;10.02;4.10;;;9.20;99.90;;;;;;4991885;28;20057;-56
2022/11/18 02:00:39;;;;;;;10.02;5.78;;;9.20;99.90;;;;;;4984834;28;20054;-56
2022/11/18 02:03:05;;;;;;;11.93;4.28;;;9.20;99.90;;;;;;4985633;28;20085;-56
2022/11/18 02:05:32;;;;;;;17.55;5.38;;;9.20;99.90;;;;;;4984649;28;20048;-57
2022/11/18 02:07:59;;;;;;;9.02;4.60;;;9.20;99.90;;;;;;4987845;28;20040;-59
2022/11/18 02:10:25;;;;;;;17.17;5.18;;;9.20;99.90;;;;;;4985720;28;20026;-57
2022/11/18 02:12:53;;;;;;;13.23;4.40;;;9.10;99.90;;;;;;4991163;28;20037;-58
2022/11/18 02:15:47;;;;;;;9.65;4.35;;;9.20;99.90;;;;;;4973900;28;20037;-58
2022/11/18 02:18:32;;;;;;;9.77;4.28;;;9.20;99.90;;;;;;4975709;28;20064;-57
2022/11/18 02:21:20;;;;;;;15.52;6.63;;;9.30;99.90;;;;;;4984071;28;20041;-57
2022/11/18 02:24:09;;;;;;;13.00;4.00;;;9.30;99.90;;;;;;4990463;28;20025;-58
2022/11/18 02:27:08;;;;;;;15.68;5.25;;;9.30;99.90;;;;;;4984951;28;20054;-58
2022/11/18 02:29:46;;;;;;;8.40;4.57;;;9.30;99.90;;;;;;4987691;28;20037;-57
2022/11/18 02:32:21;;;;;;;16.92;4.65;;;9.30;99.90;;;;;;4980286;28;21532;-56
2022/11/18 02:35:08;;;;;;;9.88;5.00;;;9.20;99.90;;;;;;4986494;28;20031;-57
2022/11/18 02:37:53;;;;;;;8.15;4.85;;;9.30;99.90;;;;;;4988204;28;20049;-57
2022/11/18 02:40:27;;;;;;;13.52;4.88;;;9.10;99.90;;;;;;4980546;28;20027;-58
2022/11/18 02:42:58;;;;;;;12.27;4.25;;;9.20;99.90;;;;;;4983504;28;20065;-60
2022/11/18 02:45:26;;;;;;;12.23;5.03;;;9.10;99.90;;;;;;4980023;28;20069;-58
2022/11/18 02:47:53;;;;;;;13.20;4.95;;;9.10;99.90;;;;;;4993854;28;20022;-59
2022/11/18 02:50:24;;;;;;;11.98;5.85;;;9.10;99.90;;;;;;4987081;28;20026;-58
2022/11/18 02:52:55;;;;;;;20.58;5.15;;;9.10;99.90;;;;;;4981918;28;20037;-59
2022/11/18 02:55:22;;;;;;;15.82;5.45;;;9.10;99.90;;;;;;4977362;28;20026;-58
2022/11/18 02:57:48;;;;;;;12.23;4.88;;;9.10;99.90;;;;;;4982302;28;20034;-58
2022/11/18 03:00:15;;;;;;;15.18;5.55;;;9.00;99.90;;;;;;4978141;28;20026;-59
2022/11/18 03:02:46;;;;;;;18.25;5.30;;;9.00;99.90;;;;;;4978231;28;20125;-58
2022/11/18 03:05:50;;;;;;;12.45;5.07;;;9.10;99.90;;;;;;4985117;28;20072;-58
2022/11/18 03:08:21;;;;;;;8.00;3.90;;;9.10;99.90;;;;;;4979120;28;21230;-58
2022/11/18 03:11:11;;;;;;;15.60;5.30;;;9.10;99.90;;;;;;4977398;28;20045;-58
2022/11/18 03:13:42;;;;;;;12.45;4.45;;;9.20;99.90;;;;;;4978132;28;20492;-58
2022/11/18 03:16:18;;;;;;;15.52;6.72;;;9.10;99.90;;;;;;4978363;28;20030;-58
2022/11/18 03:18:55;;;;;;;14.68;4.63;;;9.10;99.90;;;;;;4978462;28;20045;-58
2022/11/18 03:21:34;;;;;;;15.02;5.93;;;9.10;99.90;;;;;;4982115;28;20488;-58
2022/11/18 03:24:14;;;;;;;13.20;4.60;;;9.10;99.90;;;;;;4984096;28;20117;-59
2022/11/18 03:26:47;;;;;;;14.32;5.00;;;9.10;99.90;;;;;;4977153;28;20025;-58
2022/11/18 03:29:19;;;;;;;13.55;4.88;;;9.00;99.90;;;;;;4981904;28;20026;-58
2022/11/18 03:31:51;;;;;;;12.10;5.22;;;9.00;99.90;;;;;;4978141;28;20053;-56
2022/11/18 03:34:24;;;;;;;13.80;5.07;;;9.00;99.90;;;;;;4972525;28;21147;-60
2022/11/18 03:36:53;;;;;;;17.50;5.20;;;9.00;99.90;;;;;;4982626;28;20030;-59
2022/11/18 03:39:22;;;;;;;14.25;5.38;;;9.10;99.90;;;;;;4986990;28;20045;-56
2022/11/18 03:41:54;;;;;;;16.60;4.85;;;9.20;99.90;;;;;;4981479;28;20548;-59
2022/11/18 03:44:26;;;;;;;8.13;4.47;;;9.10;99.90;;;;;;4983428;28;20027;-57
2022/11/18 03:46:59;;;;;;;12.40;4.55;;;9.20;99.90;;;;;;4974584;28;20026;-55
2022/11/18 03:49:36;;;;;;;10.20;4.38;;;9.20;99.90;;;;;;4989053;28;20061;-58
2022/11/18 03:52:09;;;;;;;19.10;5.10;;;9.20;99.90;;;;;;4984672;28;20034;-54
2022/11/18 03:54:37;;;;;;;25.50;5.32;;;9.20;99.90;;;;;;4981974;28;20049;-55
2022/11/18 03:57:10;;;;;;;17.30;4.82;;;9.10;99.90;;;;;;4986496;28;20034;-56
2022/11/18 03:59:51;;;;;;;7.50;3.53;;;9.10;99.90;;;;;;4977383;28;20034;-57
2022/11/18 04:02:21;;;;;;;12.43;4.13;;;9.10;99.90;;;;;;4981374;28;20022;-55
2022/11/18 04:04:49;;;;;;;18.45;5.28;;;9.20;99.90;;;;;;4978275;28;20145;-57
2022/11/18 04:07:44;;;;;;;18.70;4.20;;;9.00;99.90;;;;;;4987142;28;20515;-54
2022/11/18 04:10:15;;;;;;;16.42;5.50;;;9.00;99.90;;;;;;4984892;28;20121;-59
2022/11/18 04:12:48;;;;;;;18.90;4.95;;;8.90;99.90;;;;;;4990164;28;20034;-57
2022/11/18 04:15:14;;;;;;;11.68;4.50;;;8.90;99.90;;;;;;4982922;28;20026;-57
2022/11/18 04:17:44;;;;;;;16.50;5.18;;;8.90;99.90;;;;;;4985940;28;20541;-59
2022/11/18 04:20:17;;;;;;;21.42;5.00;;;8.90;99.90;;;;;;4982121;28;20072;-56
2022/11/18 04:22:43;;;;;;;13.32;4.88;;;8.90;99.90;;;;;;4987519;28;20126;-58
2022/11/18 04:25:08;;;;;;;26.30;5.07;;;8.80;99.90;;;;;;4980071;28;20031;-58
2022/11/18 04:27:34;;;;;;;14.15;5.97;;;8.90;99.90;;;;;;4990730;28;20072;-57
2022/11/18 04:29:59;;;;;;;14.32;4.95;;;8.90;99.90;;;;;;4984849;28;20129;-57
2022/11/18 04:32:25;;;;;;;13.35;4.18;;;8.80;99.90;;;;;;4986864;28;20411;-59
2022/11/18 04:34:50;;;;;;;17.05;5.28;;;8.80;99.90;;;;;;4983366;28;20034;-57
2022/11/18 04:37:16;;;;;;;19.15;5.05;;;8.80;99.90;;;;;;4979587;28;20741;-57
2022/11/18 04:39:41;;;;;;;19.35;5.82;;;8.80;99.90;;;;;;4984698;28;20112;-56
2022/11/18 04:42:07;;;;;;;12.85;4.75;;;8.80;99.90;;;;;;4986968;28;20128;-58
2022/11/18 04:44:33;;;;;;;10.65;3.70;;;8.80;99.90;;;;;;4988783;28;20531;-59
2022/11/18 04:47:02;;;;;;;12.45;4.65;;;8.80;99.90;;;;;;4991090;28;20026;-58
2022/11/18 04:49:28;;;;;;;12.35;4.45;;;8.80;99.90;;;;;;4990996;28;20576;-55
2022/11/18 04:51:55;;;;;;;15.98;4.65;;;8.70;99.90;;;;;;4989459;28;20022;-56
2022/11/18 04:54:21;;;;;;;9.25;4.38;;;8.70;99.90;;;;;;4987831;28;20031;-54
2022/11/18 04:56:47;;;;;;;12.30;4.40;;;8.70;99.90;;;;;;4987203;28;20097;-56
2022/11/18 04:59:15;;;;;;;13.52;4.65;;;8.70;99.90;;;;;;4992612;28;20026;-57
2022/11/18 05:01:41;;;;;;;13.25;4.45;;;8.70;99.90;;;;;;4973974;28;20027;-54
2022/11/18 05:04:11;;;;;;;16.85;4.03;;;8.70;99.90;;;;;;4986821;28;20022;-55
2022/11/18 05:06:36;;;;;;;14.77;5.28;;;8.80;99.90;;;;;;4989905;28;20121;-58
2022/11/18 05:09:02;;;;;;;10.05;4.45;;;8.80;99.90;;;;;;4987874;28;20030;-57
2022/11/18 05:14:13;;;;;;;11.40;4.60;;;8.80;99.90;;;;;;4988148;28;20041;-55
2022/11/18 05:16:39;;;;;;;11.85;3.83;;;8.80;99.90;;;;;;4978151;28;20034;-55
2022/11/18 05:19:05;;;;;;;11.18;3.85;;;8.80;99.90;;;;;;4977495;28;20026;-57
2022/11/18 05:21:31;;;;;;;14.30;5.15;;;8.80;99.90;;;;;;4990573;28;20077;-56
2022/11/18 05:24:01;;;;;;;8.80;4.03;;;8.80;99.90;;;;;;4981599;28;20027;-54
2022/11/18 05:26:26;;;;;;;22.05;4.47;;;8.80;99.90;;;;;;4989641;28;20089;-55
2022/11/18 05:28:52;;;;;;;8.13;3.75;;;8.80;99.90;;;;;;5008909;28;20486;-58
2022/11/18 05:31:17;;;;;;;22.63;4.93;;;8.70;99.90;;;;;;4984251;28;20061;-57
2022/11/18 05:33:44;;;;;;;8.82;4.28;;;8.70;99.90;;;;;;4989914;28;20034;-59
2022/11/18 05:36:13;;;;;;;11.38;4.03;;;8.60;99.90;;;;;;4987380;28;20030;-57
2022/11/18 05:38:39;;;;;;;10.00;4.47;;;8.70;99.90;;;;;;4975704;28;20030;-56
2022/11/18 05:41:06;;;;;;;11.00;3.97;;;8.60;99.90;;;;;;4986266;28;20042;-55
2022/11/18 05:43:32;;;;;;;11.40;4.20;;;8.60;99.90;;;;;;4997731;28;20373;-59
2022/11/18 05:45:58;;;;;;;13.23;4.80;;;8.60;99.90;;;;;;4983865;28;20396;-55
2022/11/18 05:48:24;;;;;;;13.43;4.80;;;8.50;99.90;;;;;;4972025;28;20029;-57
2022/11/18 05:50:51;;;;;;;17.30;4.90;;;8.50;99.90;;;;;;4985925;28;20038;-57
2022/11/18 05:53:18;;;;;;;10.75;4.28;;;8.60;99.90;;;;;;4983349;28;20089;-57
2022/11/18 05:56:00;;;;;;;10.77;3.95;;;8.50;99.90;;;;;;4981418;28;20027;-57
2022/11/18 05:58:26;;;;;;;10.52;4.07;;;8.40;99.90;;;;;;4990876;28;20037;-54
2022/11/18 06:00:54;;;;;;;10.35;4.32;;;8.40;99.90;;;;;;4975282;28;20038;-57
2022/11/18 06:03:24;;;;;;;12.57;4.15;;;8.40;99.90;;;;;;4976383;28;20030;-57
2022/11/18 06:05:52;;;;;;;9.75;4.32;;;8.40;99.90;;;;;;4994416;23;20133;-54
2022/11/18 06:08:18;;;;;;;8.15;4.43;;;8.30;99.90;;;;;;4986099;28;20116;-53
2022/11/18 06:10:46;;;;;;;11.82;4.80;;;8.30;99.90;;;;;;4970085;28;20033;-60
2022/11/18 06:13:18;;;;;;;18.50;4.50;;;8.20;99.90;;;;;;4986331;28;20037;-50
2022/11/18 06:15:44;;;;;;;12.20;5.55;;;8.20;99.90;;;;;;4976744;28;20034;-54
2022/11/18 06:18:26;;;;;;;11.35;4.20;;;8.20;99.90;;;;;;4975488;28;20039;-56
2022/11/18 06:20:56;;;;;;;12.25;4.72;;;8.30;99.90;;;;;;4977030;28;20033;-61
2022/11/18 06:23:22;;;;;;;17.52;4.65;;;8.40;99.90;;;;;;4975032;28;20018;-52
2022/11/18 06:25:48;;;;;;;11.02;4.63;;;8.50;99.90;;;;;;4981004;28;20053;-52
2022/11/18 06:28:16;;;;;;;8.38;4.13;;;8.50;99.90;;;;;;4984049;28;20034;-56
2022/11/18 06:30:42;;;;;;;7.85;3.97;;;8.50;99.90;;;;;;4983953;28;20084;-49
2022/11/18 06:33:08;;;;;;;13.80;4.55;;;8.50;99.90;;;;;;4983714;28;20428;-55
2022/11/18 06:35:33;;;;;;;20.63;5.22;;;8.60;99.90;;;;;;4988868;28;20101;-50
2022/11/18 06:37:59;;;;;;;19.45;5.05;;;8.50;99.90;;;;;;4989284;28;20362;-53
2022/11/18 06:40:25;;;;;;;11.10;4.82;;;8.50;99.90;;;;;;4989097;28;20026;-62
2022/11/18 06:45:35;;;;;;;7.53;4.45;;;8.50;99.90;;;;;;4989022;28;20041;-57
2022/11/18 06:48:00;;;;;;;12.35;5.00;;;8.50;99.90;;;;;;4991427;28;20505;-48
2022/11/18 06:50:27;;;;;;;17.65;5.10;;;8.40;99.90;;;;;;4989621;28;20040;-50
2022/11/18 06:52:53;;;;;;;13.02;4.78;;;8.40;99.90;;;;;;4988954;28;20038;-52
2022/11/18 06:55:18;;;;;;;11.75;5.13;;;8.40;99.90;;;;;;4989467;28;20048;-53
2022/11/18 06:57:44;;;;;;;14.68;5.82;;;8.30;99.90;;;;;;4986276;28;20038;-56
2022/11/18 07:00:11;;;;;;;10.93;6.05;;;8.30;99.90;;;;;;4971744;28;20030;-54
2022/11/18 07:02:37;;;;;;;13.57;5.75;;;8.40;99.90;;;;;;4989143;28;20050;-49
2022/11/18 07:05:04;;;;;;;13.30;5.57;;;8.40;99.90;;;;;;4986972;28;20061;-51
2022/11/18 07:07:30;;;;;;;14.50;6.47;;;8.40;99.90;;;;;;4982947;28;20034;-53
2022/11/18 07:09:55;;;;;;;9.10;6.20;;;8.40;99.90;;;;;;4988242;28;20037;-49
2022/11/18 07:12:21;;;;;;;19.05;7.32;;;8.40;99.90;;;;;;4988010;28;20045;-55
2022/11/18 07:14:46;;;;;;;15.70;6.72;;;8.40;99.90;;;;;;4987296;28;20109;-52
2022/11/18 07:17:12;;;;;;;18.10;6.10;;;8.40;99.90;;;;;;4989685;28;20030;-49
2022/11/18 07:19:38;;;;;;;13.13;6.30;;;8.40;99.90;;;;;;4988468;28;20437;-49
2022/11/18 07:22:04;;;;;;;15.75;6.32;;;8.40;99.90;;;;;;4987684;28;20030;-47
2022/11/18 07:24:30;;;;;;;14.82;6.28;;;8.40;99.90;;;;;;4987867;28;20045;-59
2022/11/18 07:26:56;;;;;;;16.48;6.05;;;8.40;99.90;;;;;;4988083;28;20026;-54
2022/11/18 07:29:21;;;;;;;18.85;5.93;;;8.40;99.90;;;;;;4988067;28;20040;-56
2022/11/18 07:31:47;;;;;;;14.57;6.20;;;8.40;99.90;;;;;;4986576;28;20039;-50
2022/11/18 07:34:12;;;;;;;19.35;7.28;;;8.60;99.90;;;;;;4986409;28;20029;-52
2022/11/18 07:36:38;;;;;;;19.85;6.72;;;8.60;99.90;;;;;;4988249;28;20030;-57
2022/11/18 07:39:05;;;;;;;17.95;6.78;;;8.60;99.90;;;;;;4986070;28;20500;-55
2022/11/18 07:41:32;;;;;;;16.30;6.50;;;8.60;99.90;;;;;;4988490;28;20022;-53
2022/11/18 07:43:59;;;;;;;22.75;6.75;;;8.60;99.90;;;;;;4987237;28;20029;-56
2022/11/18 07:46:28;;;;;;;16.08;5.75;;;8.70;99.90;;;;;;4989293;28;20057;-50
2022/11/18 07:48:56;;;;;;;13.77;5.72;;;8.70;99.90;;;;;;4988794;28;20026;-51
2022/11/18 07:51:27;;;;;;;15.45;6.50;;;8.70;99.90;;;;;;4989464;28;20054;-58
2022/11/18 07:53:53;;;;;;;18.73;7.10;;;8.70;99.90;;;;;;4983482;28;20400;-48
2022/11/18 07:56:20;;;;;;;17.83;6.65;;;8.80;99.90;;;;;;4989415;28;20115;-49
2022/11/18 07:58:45;;;;;;;15.70;6.25;;;8.80;99.90;;;;;;4982565;28;20701;-50
2022/11/18 08:01:17;;;;;;;13.98;6.57;;;8.90;99.90;;;;;;4989737;28;20026;-61
2022/11/18 08:03:43;;;;;;;16.77;6.93;;;8.90;99.90;;;;;;4988619;28;20030;-56
2022/11/18 08:06:10;;;;;;;13.27;6.47;;;8.90;99.90;;;;;;4989416;28;20061;-59
2022/11/18 08:08:36;;;;;;;16.30;7.05;;;9.00;99.90;;;;;;4989449;28;20036;-50
2022/11/18 08:11:05;;;;;;;14.45;6.63;;;9.10;99.90;;;;;;4989096;28;20019;-48
2022/11/18 08:13:31;;;;;;;19.83;6.40;;;9.10;99.90;;;;;;4988269;28;20084;-49
2022/11/18 08:15:57;;;;;;;11.98;6.45;;;9.10;99.90;;;;;;4990609;28;20053;-50
2022/11/18 08:18:23;;;;;;;13.57;6.80;;;9.20;99.90;;;;;;4992305;28;20037;-47
2022/11/18 08:20:49;;;;;;;17.63;8.27;;;9.30;99.90;;;;;;4991411;28;20126;-48
2022/11/18 08:23:15;;;;;;;13.57;6.35;;;9.30;99.90;;;;;;4992287;28;20030;-51
2022/11/18 08:25:43;;;;;;;19.10;6.80;;;9.40;99.90;;;;;;4990470;28;20050;-51
2022/11/18 08:28:09;;;;;;;17.65;7.47;;;9.50;99.90;;;;;;4990828;28;20030;-51
2022/11/18 08:30:36;;;;;;;21.50;7.32;;;9.50;99.90;;;;;;4992252;28;20037;-49
2022/11/18 08:33:02;;;;;;;13.43;7.15;;;9.60;99.90;;;;;;4991296;28;20046;-58
2022/11/18 08:35:29;;;;;;;16.58;6.28;;;9.60;99.90;;;;;;4991285;28;20026;-53
2022/11/18 08:37:55;;;;;;;17.50;7.22;;;9.70;99.90;;;;;;4990797;28;20535;-54
2022/11/18 08:40:21;;;;;;;16.90;7.35;;;9.80;99.90;;;;;;4991715;28;20046;-53
2022/11/18 08:42:47;;;;;;;20.02;8.75;;;9.80;99.90;;;;;;4982022;28;20026;-52
2022/11/18 08:45:13;;;;;;;17.20;7.78;;;9.80;99.90;;;;;;4989546;28;20404;-57
2022/11/18 08:47:38;;;;;;;20.90;8.07;;;9.80;99.90;;;;;;4986915;28;20172;-49
2022/11/18 08:50:06;;;;;;;10.75;7.13;;;9.80;99.90;;;;;;4981210;28;20037;-52
2022/11/18 08:52:32;;;;;;;20.55;7.80;;;9.90;99.90;;;;;;4979984;28;20022;-56
2022/11/18 08:54:58;;;;;;;15.30;8.27;;;9.90;99.90;;;;;;4980468;28;20614;-57
2022/11/18 08:57:23;;;;;;;23.33;8.70;;;9.90;99.90;;;;;;4981331;28;20084;-55
2022/11/18 08:59:49;;;;;;;23.02;7.32;;;9.90;99.90;;;;;;4970435;28;20030;-48
2022/11/18 09:02:17;;;;;;;17.63;7.55;;;10.00;99.90;;;;;;4980804;28;20037;-49
2022/11/18 09:04:42;;;;;;;22.77;7.45;;;10.10;99.90;;;;;;4982883;28;20448;-53
2022/11/18 09:07:08;;;;;;;15.82;6.78;;;10.20;99.90;;;;;;4979821;28;20034;-53
2022/11/18 09:09:34;;;;;;;16.67;5.68;;;10.20;99.90;;;;;;4979910;28;20027;-58
2022/11/18 09:12:00;;;;;;;15.45;5.68;;;10.20;99.90;;;;;;4978916;28;21199;-54
2022/11/18 09:14:25;;;;;;;7.65;4.38;;;10.20;99.90;;;;;;4980421;28;20539;-54
2022/11/18 09:16:51;;;;;;;12.45;5.85;;;10.30;99.90;;;;;;4969005;28;20031;-55
2022/11/18 09:19:16;;;;;;;10.63;4.70;;;10.20;99.90;;;;;;4982750;28;20404;-55
2022/11/18 09:21:42;;;;;;;11.82;5.72;;;10.30;99.90;;;;;;4980563;28;20447;-55
2022/11/18 09:24:10;;;;;;;12.38;5.70;;;10.20;99.90;;;;;;4980345;28;20133;-50
2022/11/18 09:26:36;;;;;;;8.77;4.93;;;10.20;99.90;;;;;;4978569;28;20018;-53
2022/11/18 09:29:03;;;;;;;15.15;5.57;;;10.20;99.90;;;;;;4981404;28;20030;-51
2022/11/18 09:31:28;;;;;;;11.70;4.85;;;10.30;99.90;;;;;;4984519;28;22018;-55
2022/11/18 09:33:54;;;;;;;13.65;4.95;;;10.30;99.90;;;;;;4981828;28;20033;-57
2022/11/18 09:36:22;;;;;;;17.70;4.97;;;10.30;99.90;;;;;;4981382;28;20042;-54
2022/11/18 09:38:48;;;;;;;9.45;5.57;;;10.30;99.90;;;;;;4981172;28;20144;-54
2022/11/18 09:41:38;;;;;;;17.67;5.32;;;10.40;99.90;;;;;;4980111;28;20022;-53
2022/11/18 09:44:30;;;;;;;15.23;5.25;;;10.40;99.90;;;;;;4978228;28;20032;-56
2022/11/18 09:47:20;;;;;;;16.60;6.75;;;10.30;99.90;;;;;;4987736;28;20567;-51
2022/11/18 09:49:47;;;;;;;17.55;5.82;;;10.30;99.90;;;;;;4986207;28;20684;-49
2022/11/18 09:52:18;;;;;;;9.52;5.10;;;10.40;99.90;;;;;;4980776;28;20076;-55
2022/11/18 09:54:44;;;;;;;9.68;4.60;;;10.40;99.90;;;;;;4981292;28;20109;-48
2022/11/18 09:57:15;;;;;;;18.73;5.85;;;10.50;99.90;;;;;;4979851;28;20928;-56
2022/11/18 09:59:42;;;;;;;15.20;4.78;;;10.50;99.90;;;;;;4979513;28;20026;-57
2022/11/18 10:02:45;;;;;;;17.38;5.45;;;10.60;99.90;;;;;;4981729;28;20034;-58
2022/11/18 10:05:21;;;;;;;12.23;5.03;;;10.60;99.90;;;;;;4981561;28;20396;-54
2022/11/18 10:08:10;;;;;;;12.45;3.67;;;10.70;99.90;;;;;;4980506;28;20468;-52
2022/11/18 10:10:49;;;;;;;7.22;1.90;;;10.80;99.90;;;;;;4978934;28;20507;-53
2022/11/18 10:13:40;;;;;;;10.30;1.60;;;10.90;99.90;;;;;;4980849;28;20034;-57
2022/11/18 10:16:28;;;;;;;8.07;2.03;;;10.90;99.90;;;;;;4981680;28;20443;-59
2022/11/18 10:19:07;;;;;;;5.75;1.60;;;11.10;99.90;;;;;;4981390;28;20097;-53
2022/11/18 10:21:40;;;;;;;10.02;1.60;;;11.20;99.90;;;;;;4987134;28;20769;-55
2022/11/18 10:24:18;;;;;;;11.43;2.03;;;11.30;99.90;;;;;;4978870;28;20507;-50
2022/11/18 10:26:44;;;;;;;6.93;1.63;;;11.30;99.90;;;;;;4984726;28;20408;-56
2022/11/18 10:29:10;;;;;;;7.43;1.80;;;11.30;99.90;;;;;;4989928;28;20026;-51
2022/11/18 10:31:52;;;;;;;8.32;1.90;;;11.30;99.90;;;;;;4987275;28;20026;-50
2022/11/18 10:34:19;;;;;;;7.97;1.98;;;11.30;99.90;;;;;;4988631;28;20038;-51
2022/11/18 10:37:01;;;;;;;9.10;1.67;;;11.30;99.90;;;;;;4985716;28;20022;-53
2022/11/18 10:39:27;;;;;;;8.70;1.65;;;11.30;99.90;;;;;;4985370;28;20081;-51
2022/11/18 10:42:05;;;;;;;11.85;1.63;;;11.30;99.90;;;;;;4986074;28;20027;-53
2022/11/18 10:44:37;;;;;;;6.70;1.42;;;11.30;99.90;;;;;;4988586;28;20018;-54
2022/11/18 10:47:20;;;;;;;3.55;1.10;;;11.30;99.90;;;;;;4982416;28;20040;-53
2022/11/18 10:49:46;;;;;;;5.38;1.63;;;11.30;99.90;;;;;;4983762;28;20105;-54
2022/11/18 10:52:13;;;;;;;6.90;1.73;;;11.40;99.90;;;;;;4985173;28;20041;-55
2022/11/18 10:54:39;;;;;;;12.43;1.77;;;11.40;99.90;;;;;;4979084;28;20993;-58
2022/11/18 10:57:18;;;;;;;4.78;1.77;;;11.40;99.90;;;;;;4988579;28;20388;-50
2022/11/18 10:59:53;;;;;;;8.48;1.55;;;11.60;99.90;;;;;;4988085;28;20029;-60
2022/11/18 11:02:29;;;;;;;9.85;1.40;;;11.70;99.90;;;;;;4982622;28;20027;-51
2022/11/18 11:04:56;;;;;;;4.82;1.38;;;11.70;99.90;;;;;;4982599;28;20023;-55
2022/11/18 11:07:31;;;;;;;9.10;0.90;;;11.80;99.90;;;;;;4974365;28;20038;-52
2022/11/18 11:10:12;;;;;;;10.93;1.52;;;11.90;99.90;;;;;;4987596;28;20568;-49
2022/11/18 11:12:53;;;;;;;3.88;0.90;;;11.90;99.90;;;;;;4983973;28;20030;-52
2022/11/18 11:15:31;;;;;;;6.70;1.60;;;11.90;99.90;;;;;;4986247;28;20896;-50
2022/11/18 11:20:45;;;;;;;4.68;1.17;;;11.80;99.90;;;;;;4988673;28;20741;-49
2022/11/18 11:23:13;;;;;;;2.05;0.85;;;11.90;99.90;;;;;;4982328;28;20038;-58
2022/11/18 11:25:44;;;;;;;6.03;1.20;;;11.90;99.90;;;;;;4986276;28;20931;-55
2022/11/18 11:28:23;;;;;;;4.93;1.40;;;11.90;99.90;;;;;;4986166;28;20038;-53
2022/11/18 11:31:16;;;;;;;7.43;1.17;;;11.90;99.90;;;;;;4984087;28;20057;-55
2022/11/18 11:33:54;;;;;;;9.02;1.52;;;11.90;99.90;;;;;;4983797;28;20113;-55
2022/11/18 11:36:41;;;;;;;10.45;1.65;;;11.80;99.90;;;;;;4980647;28;20038;-54
2022/11/18 11:39:21;;;;;;;2.90;1.20;;;11.70;99.90;;;;;;4981905;28;20113;-57
2022/11/18 11:42:05;;;;;;;4.95;1.00;;;11.80;99.90;;;;;;4989039;28;20030;-52
2022/11/18 11:44:39;;;;;;;10.65;1.33;;;11.90;99.90;;;;;;4983031;28;20121;-50
2022/11/18 11:50:07;;;;;;;11.65;1.27;;;12.20;99.90;;;;;;4989788;28;20334;-52
2022/11/18 11:52:59;;;;;;;8.32;1.13;;;12.20;99.90;;;;;;4973462;28;20025;-55
2022/11/18 11:55:46;;;;;;;7.10;1.40;;;12.20;99.90;;;;;;4985425;28;20081;-57
2022/11/18 11:58:46;;;;;;;4.82;0.95;;;12.30;99.90;;;;;;4991020;28;20092;-51
2022/11/18 12:01:36;;;;;;;3.53;1.20;;;12.40;99.90;;;;;;4984534;28;20070;-56
2022/11/18 12:04:18;;;;;;;4.55;1.30;;;12.40;99.90;;;;;;4988222;28;20081;-50
2022/11/18 12:06:51;;;;;;;6.47;1.42;;;12.50;99.90;;;;;;4987442;28;20057;-59
2022/11/18 12:09:31;;;;;;;8.50;1.25;;;12.50;99.90;;;;;;4987155;28;20025;-56
2022/11/18 12:12:33;;;;;;;8.80;1.00;;;12.60;99.90;;;;;;4991726;28;20058;-58
2022/11/18 12:15:05;;;;;;;3.35;0.88;;;12.70;99.90;;;;;;5014150;22;20028;-58
2022/11/18 12:17:44;;;;;;;4.60;0.90;;;12.80;99.90;;;;;;4987118;28;20041;-57
2022/11/18 12:20:36;;;;;;;12.98;1.40;;;12.90;99.90;;;;;;4995254;28;20419;-55
2022/11/18 12:23:14;;;;;;;7.40;1.00;;;12.90;99.90;;;;;;4991402;28;20317;-56
2022/11/18 12:25:49;;;;;;;9.07;1.10;;;12.90;99.90;;;;;;4992223;28;20022;-58
2022/11/18 12:28:36;;;;;;;6.70;2.17;;;12.90;99.90;;;;;;4991744;28;20054;-57
2022/11/18 12:31:17;;;;;;;8.55;1.40;;;12.90;99.90;;;;;;4974297;28;20041;-57
2022/11/18 12:33:42;;;;;;;9.07;1.48;;;13.00;99.90;;;;;;4990849;28;20035;-57
2022/11/18 12:36:08;;;;;;;8.85;1.30;;;12.90;99.90;;;;;;4989137;28;20038;-57
2022/11/18 12:38:33;;;;;;;8.02;1.27;;;13.00;99.90;;;;;;4990904;28;20453;-56
2022/11/18 12:43:45;;;;;;;7.22;1.50;;;13.10;99.90;;;;;;4989355;28;20911;-58
2022/11/18 12:43:47;;;;;;;8.23;1.15;;;13.20;99.90;;;;;;4991424;28;20588;-58
2022/11/18 12:46:47;;;;;;;12.45;1.50;;;13.20;99.90;;;;;;4989847;28;20499;-57
2022/11/18 12:49:22;;;;;;;10.95;1.70;;;13.20;99.90;;;;;;4987085;28;20034;-56
2022/11/18 12:51:48;;;;;;;;;;;13.10;99.90;;;;;;4986166;28;20117;-56
2022/11/18 12:54:22;;;;;;;17.05;1.30;;;13.10;99.90;;;;;;4981896;28;21055;-60
2022/11/18 12:56:49;;;;;;;;;;;13.10;99.90;;;;;;4991261;28;20425;-58
2022/11/18 12:59:14;;;;;;;5.82;1.00;;;12.90;99.90;;;;;;4988588;28;20376;-59
2022/11/18 13:01:40;;;;;;;5.40;1.42;;;13.00;99.90;;;;;;4989117;28;20088;-58
2022/11/18 13:04:13;;;;;;;11.32;1.40;;;13.00;99.90;;;;;;4989561;28;20033;-60
2022/11/18 13:06:39;;;;;;;4.25;1.30;;;12.90;99.90;;;;;;4984371;28;20105;-57
2022/11/18 13:09:16;;;;;;;5.07;1.45;;;12.90;99.90;;;;;;4983861;28;20114;-59
2022/11/18 13:11:50;;;;;;;8.18;1.20;;;12.90;99.90;;;;;;4990804;28;20038;-60
2022/11/18 13:20:29;;;;;;;9.07;1.20;;;12.90;99.90;;;;;;4983181;28;20164;-59
2022/11/18 13:25:46;;;;;;;7.20;1.48;;;12.70;99.90;;;;;;4983984;28;20046;-60
2022/11/18 13:28:44;;;;;;;6.80;1.65;;;12.70;99.90;;;;;;4984045;28;20038;-56
2022/11/18 13:31:16;;;;;;;7.22;1.48;;;12.70;99.90;;;;;;4989108;28;20408;-57